Flight Track Log - Related Links

Times and Time Zones

All times are in EDT time to prevent confusion due to time zone crossing. See the FFT532 flight status page for this flight to view local times or setup timezone preferences in your user account.

Time Position Orientation Groundspeed Altitude Reporting Facility
EDT Latitude Longitude Course Direction KTS MPH feet Rate Location/Type
Wed 09:29:46 AM 39.8000 -104.6167 83° East 186 214 7,200  Level Denver TRACON
Wed 09:30:46 AM 39.7500 -104.5667 142° Southeast 251 289 8,300 1,750 Climbing Denver TRACON
Wed 09:31:46 AM 39.6833 -104.5000 142° Southeast 285 328 10,700 2,113 Climbing Denver TRACON
Wed 09:33:08 AM 39.7342 -104.3533 66° East 347 399 13,300 2,042 Climbing Denver Center
Wed 09:34:10 AM 39.7781 -104.2283 65° Northeast 357 411 15,600 2,195 Climbing Denver Center
Wed 09:35:00 AM 39.8905 -103.6617 83° East  Level FlightAware Approximate
Wed 09:35:11 AM 39.8044 -104.1014 75° East 364 419 17,800  Level Denver Center
Wed 09:36:12 AM 39.8333 -103.9706 74° East 377 434 19,500 1,721 Climbing Denver Center
Wed 09:37:13 AM 39.8606 -103.8367 75° East 388 447 21,300 1,574 Climbing Denver Center
Wed 09:38:14 AM 39.8831 -103.7286 75° East 380 437 22,700 1,561 Climbing Denver Center
Wed 09:39:16 AM 39.9028 -103.5597 81° East 394 453 24,500 1,561 Climbing Denver Center
Wed 09:40:17 AM 39.9206 -103.4136 81° East 405 466 25,900 1,426 Climbing Denver Center
Wed 09:41:18 AM 39.9358 -103.2667 82° East 411 473 27,400 1,317 Climbing Denver Center
Wed 09:42:20 AM 39.9533 -103.1161 81° East 418 481 28,600 1,268 Climbing Denver Center
Wed 09:43:21 AM 39.9739 -102.9325 82° East 425 489 30,000 1,230 Climbing Denver Center
Wed 09:44:22 AM 39.9900 -102.7756 82° East 434 499 31,100 1,122 Climbing Denver Center
Wed 09:45:24 AM 40.0064 -102.6306 82° East 441 507 32,300 1,415 Climbing Denver Center
Wed 09:46:25 AM 40.0247 -102.4553 82° East 439 505 34,000 1,328 Climbing Denver Center
Wed 09:47:26 AM 40.0394 -102.3058 83° East 434 499 35,000 585 Climbing Denver Center
Wed 09:48:28 AM 40.0569 -102.1361 82° East 426 490 35,200 732 Climbing Denver Center
Wed 09:49:29 AM 40.0728 -101.9892 82° East 427 491 36,500 878 Climbing Denver Center
Wed 09:50:31 AM 40.0867 -101.8447 83° East 420 483 37,000 244 Climbing Denver Center
Wed 09:51:32 AM 40.1033 -101.6764 83° East 419 482 37,000  Level Denver Center
Wed 09:52:34 AM 40.1169 -101.5319 83° East 420 483 37,000  Level Denver Center
Wed 09:53:35 AM 40.1325 -101.3628 83° East 421 484 37,000  Level Denver Center
Wed 09:54:37 AM 40.1456 -101.2197 83° East 417 480 37,000  Level Denver Center
Wed 09:55:38 AM 40.1619 -101.0531 83° East 416 479 37,000  Level Denver Center
Wed 09:56:40 AM 40.1750 -100.9081 83° East 421 484 37,000  Level Denver Center
Wed 09:57:41 AM 40.1883 -100.7644 83° East 420 483 37,000  Level Denver Center
Wed 09:58:43 AM 40.2028 -100.5953 84° East 421 484 37,000  Level Denver Center
Wed 09:59:45 AM 40.2067 -100.4481 88° East 424 488 37,000  Level Denver Center
Wed 10:00:46 AM 40.2089 -100.2767 89° East 424 488 37,000  Level Denver Center
Wed 10:01:48 AM 40.2111 -100.1308 89° East 422 486 37,000  Level Denver Center
Wed 10:02:49 AM 40.2136 -99.9592 89° East 423 487 37,000  Level Denver Center
Wed 10:03:51 AM 40.2150 -99.8075 89° East 421 484 37,000  Level Denver Center
Wed 10:04:53 AM 40.2167 -99.6525 89° East 426 490 37,000  Level Denver Center
Wed 10:05:54 AM 40.2181 -99.5006 89° East 421 484 37,000  Level Denver Center
Wed 10:06:56 AM 40.2192 -99.3481 89° East 419 482 37,000  Level Denver Center
Wed 10:07:58 AM 40.2203 -99.1950 89° East 422 486 37,000  Level Denver Center
Wed 10:09:00 AM 40.2217 -99.0103 89° East 424 488 37,000  Level Denver Center
Wed 10:10:01 AM 40.2217 -98.8572 90° East 423 487 37,000  Level Denver Center
Wed 10:11:03 AM 40.2228 -98.7033 89° East 425 489 37,000  Level Denver Center
Wed 10:12:05 AM 40.2222 -98.5494 90° East 424 488 37,000  Level Denver Center
Wed 10:13:10 AM 40.2225 -98.3961 90° East 425 489 37,000  Level Minneapolis Center
Wed 10:14:12 AM 40.2217 -98.2111 90° East 426 490 37,000  Level Minneapolis Center
Wed 10:15:14 AM 40.2203 -98.0556 91° East 427 491 37,000 44 Level Minneapolis Center
Wed 10:16:28 AM 40.2200 -97.9003 90° East 428 493 37,100  Climbing Minneapolis Center
Wed 10:17:30 AM 40.2192 -97.7119 90° East 431 496 37,000 -48 Descending Minneapolis Center
Wed 10:18:33 AM 40.2178 -97.5569 91° East 428 493 37,000  Level Minneapolis Center
Wed 10:19:35 AM 40.2172 -97.4003 90° East 430 495 37,000  Level Minneapolis Center
Wed 10:20:37 AM 40.2178 -97.2211 90° East 431 496 37,000  Level Minneapolis Center
Wed 10:21:39 AM 40.2419 -97.0653 78° East 437 503 37,000  Level Minneapolis Center
Wed 10:22:53 AM 40.2661 -96.9075 79° East 442 509 37,000  Level Minneapolis Center
Wed 10:23:55 AM 40.2917 -96.7506 78° East 443 510 37,000  Level Minneapolis Center
Wed 10:24:57 AM 40.3247 -96.5303 79° East 442 509 37,000  Level Minneapolis Center
Wed 10:25:59 AM 40.3472 -96.3728 79° East 442 509 37,000  Level Minneapolis Center
Wed 10:27:01 AM 40.3719 -96.2169 78° East 440 506 37,000  Level Minneapolis Center
Wed 10:28:15 AM 40.3950 -96.0606 79° East 440 506 37,000  Level Minneapolis Center
Wed 10:29:18 AM 40.4231 -95.8697 79° East 443 510 37,000  Level Minneapolis Center
Wed 10:30:20 AM 40.4503 -95.6811 79° East 442 509 37,000  Level Minneapolis Center
Wed 10:31:22 AM 40.4728 -95.5261 79° East 438 504 37,000  Level Minneapolis Center
Wed 10:32:24 AM 40.4958 -95.3692 79° East 438 504 37,000  Level Minneapolis Center
Wed 10:33:26 AM 40.5164 -95.2125 80° East 437 503 37,000  Level Minneapolis Center
Wed 10:34:28 AM 40.5397 -95.0550 79° East 440 506 37,000  Level Minneapolis Center
Wed 10:35:30 AM 40.5617 -94.8967 80° East 441 507 37,000  Level Minneapolis Center
Wed 10:36:32 AM 40.5861 -94.7067 80° East 441 507 37,000  Level Minneapolis Center
Wed 10:37:34 AM 40.6083 -94.5483 79° East 441 507 37,000  Level Minneapolis Center
Wed 10:38:36 AM 40.6272 -94.4075 80° East 444 511 37,000  Level Minneapolis Center
Wed 10:39:38 AM 40.6525 -94.2178 80° East 443 510 37,000  Level Minneapolis Center
Wed 10:40:40 AM 40.6722 -94.0586 81° East 443 510 37,000  Level Minneapolis Center
Wed 10:41:42 AM 40.6931 -93.9008 80° East 442 509 37,000  Level Minneapolis Center
Wed 10:42:45 AM 40.7128 -93.7433 81° East 439 505 37,000  Level Minneapolis Center
Wed 10:43:30 AM 40.7297 -93.6153 80° East 439 505 37,000  Level Chicago Center
Wed 10:44:32 AM 40.7489 -93.4586 81° East 437 503 37,000  Level Chicago Center
Wed 10:45:34 AM 40.7678 -93.3028 81° East 433 498 37,000  Level Chicago Center
Wed 10:46:36 AM 40.7911 -93.1142 81° East 435 501 37,000  Level Chicago Center
Wed 10:47:38 AM 40.8092 -92.9558 81° East 438 504 37,000  Level Chicago Center
Wed 10:48:40 AM 40.8294 -92.7961 80° East 441 507 37,000  Level Chicago Center
Wed 10:49:42 AM 40.8478 -92.6364 81° East 442 509 37,000  Level Chicago Center
Wed 10:50:44 AM 40.8669 -92.4758 81° East 444 511 37,000 -242 Level Chicago Center
Wed 10:51:46 AM 40.8844 -92.3139 82° East 447 514 36,500 -823 Descending Chicago Center
Wed 10:52:48 AM 40.9067 -92.1178 81° East 450 518 35,300 -1,056 Descending Chicago Center
Wed 10:53:51 AM 40.9244 -91.9550 82° East 450 518 34,300 -912 Descending Chicago Center
Wed 10:54:53 AM 40.9419 -91.7919 82° East 450 518 33,400 -919 Descending Chicago Center
Wed 10:55:55 AM 40.9608 -91.6269 81° East 456 525 32,400 -968 Descending Chicago Center
Wed 10:56:57 AM 40.9781 -91.4608 82° East 459 528 31,400 -1,065 Descending Chicago Center
Wed 10:57:59 AM 40.9978 -91.2675 82° East 456 525 30,200 -1,065 Descending Chicago Center
Wed 10:59:01 AM 41.0156 -91.0994 82° East 460 529 29,200 -1,306 Descending Chicago Center
Wed 11:00:03 AM 41.0322 -90.9364 82° East 449 517 27,500 -1,935 Descending Chicago Center
Wed 11:01:05 AM 41.0489 -90.7767 82° East 443 510 25,200 -1,968 Descending Chicago Center
Wed 11:02:08 AM 41.0633 -90.6228 83° East 428 493 23,400 -1,056 Descending Chicago Center
Wed 11:03:10 AM 41.0808 -90.4414 83° East 413 475 23,000 -194 Descending Chicago Center
Wed 11:04:12 AM 41.0961 -90.2889 82° East 415 478 23,000 -871 Level Chicago Center
Wed 11:05:14 AM 41.1097 -90.1386 83° East 411 473 21,200 -1,790 Descending Chicago Center
Wed 11:06:16 AM 41.1239 -89.9925 83° East 398 458 19,300 -1,548 Descending Chicago Center
Wed 11:07:18 AM 41.1375 -89.8486 83° East 392 451 18,000 -1,403 Descending Chicago Center
Wed 11:08:20 AM 41.1492 -89.7092 84° East 379 436 16,400 -1,500 Descending Chicago Center
Wed 11:09:22 AM 41.1619 -89.5711 83° East 376 433 14,900 -1,016 Descending Chicago Center
Wed 11:10:24 AM 41.1703 -89.4381 85° East 363 418 14,300 -629 Descending Chicago Center
Wed 11:11:26 AM 41.1822 -89.2753 84° East 366 421 13,600 -677 Descending Chicago Center
Wed 11:12:28 AM 41.1906 -89.1375 85° East 359 413 12,900 -629 Descending Chicago Center
Wed 11:13:30 AM 41.1983 -89.0078 85° East 356 410 12,300 -726 Descending Chicago Center
Wed 11:14:32 AM 41.2067 -88.8814 85° East 350 403 11,400 -919 Descending Chicago Center
Wed 11:15:34 AM 41.2133 -88.7669 86° East 321 369 10,400 -1,016 Descending Chicago Center
Wed 11:16:36 AM 41.2425 -88.6706 68° East 307 353 9,300 -1,079 Descending Chicago Center
Wed 11:18:32 AM 41.3667 -88.5333 40° Northeast 284 327 7,200 -1,059 Descending Chicago TRACON
Wed 11:19:26 AM 41.4167 -88.4667 45° Northeast 278 320 6,300 -632 Descending Chicago TRACON
Wed 11:20:26 AM 41.4500 -88.3667 66° East 279 321 6,000 -149 Descending Chicago TRACON
Wed 11:21:27 AM 41.4833 -88.2667 66° East 277 319 6,000 -425 Level Chicago TRACON
Wed 11:22:33 AM 41.5167 -88.1667 66° East 277 319 5,100 -476 Descending Chicago TRACON
Wed 11:23:33 AM 41.5333 -88.0667 77° East 273 314 5,000 -50 Descending Chicago TRACON
Wed 11:24:33 AM 41.5667 -87.9833 62° Northeast 274 315 5,000  Level Chicago TRACON
Wed 11:25:27 AM 41.5833 -87.8833 77° East 272 313 5,000 -632 Level Chicago TRACON
Wed 11:26:27 AM 41.6000 -87.7833 77° East 270 311 3,800 -950 Descending Chicago TRACON
Wed 11:27:27 AM 41.6000 -87.7000 90° East 242 278 3,100 -571 Descending Chicago TRACON
Wed 11:28:33 AM 41.6333 -87.6167 62° Northeast 224 258 2,600 -286 Descending Chicago TRACON
Wed 11:29:33 AM 41.6833 -87.6000 14° North 201 231 2,500 -143 Descending Chicago TRACON
Wed 11:30:39 AM 41.7167 -87.6667 304° West 177 204 2,300 -400 Descending Chicago TRACON
Wed 11:31:33 AM 41.7500 -87.6833 340° North 185 213 1,700 -494 Descending Chicago TRACON
Wed 11:32:04 AM 41.7725 -87.6675 28° Northeast 175 201 1,600 -258 Descending Chicago Center
Wed 11:33:06 AM 41.8053 -87.6917 331° Northwest 154 177 1,300 -242 Descending Chicago Center
Wed 11:34:08 AM 41.7950 -87.7336 252° West 150 173 1,100 -194 Descending Chicago Center
Wed 11:36:00 AM 41.7833 -87.7500 51° Northeast  Level FlightAware Approximate
Wed 11:43:00 AM 41.7860 -87.7524 51° Northeast  Level Estimated

Login

Don't have an account? Register now (free) for customized features, flight alerts, and more!